createdAt,value
2018-10-02T00:01:10.810Z,9.07
2018-10-02T00:03:40.053Z,9.17
2018-10-02T00:06:09.703Z,9.93
2018-10-02T00:08:39.503Z,8.10
2018-10-02T00:11:13.966Z,9.90
2018-10-02T00:13:52.379Z,8.73
2018-10-02T00:16:21.609Z,8.17
2018-10-02T00:18:51.114Z,10.47
2018-10-02T00:21:20.352Z,9.20
2018-10-02T00:23:49.645Z,9.97
2018-10-02T00:26:18.846Z,10.23
2018-10-02T00:28:48.037Z,9.00
2018-10-02T00:31:44.317Z,9.93
2018-10-02T00:34:13.489Z,9.50
2018-10-02T00:36:42.737Z,10.50
2018-10-02T00:39:12.130Z,9.53
2018-10-02T00:41:46.919Z,9.73
2018-10-02T00:44:16.168Z,9.10
2018-10-02T00:46:45.382Z,8.33
2018-10-02T00:49:14.610Z,7.43
2018-10-02T00:51:43.838Z,7.40
2018-10-02T00:54:13.047Z,7.80
2018-10-02T00:56:42.266Z,6.80
2018-10-02T00:59:11.539Z,7.70
2018-10-02T01:01:40.723Z,5.93
2018-10-02T01:04:09.929Z,6.83
2018-10-02T01:06:39.266Z,5.77
2018-10-02T01:09:10.991Z,5.33
2018-10-02T01:11:40.626Z,5.63
2018-10-02T01:14:10.143Z,5.20
2018-10-02T01:16:39.634Z,5.03
2018-10-02T01:19:09.069Z,5.50
2018-10-02T01:21:38.258Z,4.50
2018-10-02T01:24:07.488Z,4.50
2018-10-02T01:26:36.705Z,5.00
2018-10-02T01:29:05.894Z,4.37
2018-10-02T01:31:35.098Z,4.30
2018-10-02T01:34:04.382Z,4.50
2018-10-02T01:36:33.622Z,4.20
2018-10-02T01:39:02.827Z,4.60
2018-10-02T01:41:32.066Z,4.17
2018-10-02T01:44:01.495Z,3.70
2018-10-02T01:46:30.666Z,4.60
2018-10-02T01:48:59.878Z,5.20
2018-10-02T01:54:13.555Z,5.00
2018-10-02T01:56:42.778Z,5.70
2018-10-02T01:59:11.968Z,5.70
2018-10-02T02:01:41.260Z,5.87
2018-10-02T02:04:10.453Z,5.07
2018-10-02T02:06:39.631Z,6.20
2018-10-02T02:09:08.893Z,5.97
2018-10-02T02:11:38.087Z,5.53
2018-10-02T02:14:07.407Z,7.00
2018-10-02T02:16:36.624Z,8.43
2018-10-02T02:19:05.929Z,7.17
2018-10-02T02:21:35.353Z,7.20
2018-10-02T02:24:04.582Z,7.80
2018-10-02T02:26:33.870Z,7.73
2018-10-02T02:29:03.086Z,8.13
2018-10-02T02:31:32.316Z,8.23
2018-10-02T02:34:01.537Z,8.00
2018-10-02T02:36:30.747Z,8.83
2018-10-02T02:38:59.995Z,8.13
2018-10-02T02:41:29.199Z,9.50
2018-10-02T02:43:58.422Z,9.43
2018-10-02T02:46:27.695Z,9.60
2018-10-02T02:49:02.139Z,10.13
2018-10-02T02:51:32.701Z,10.40
2018-10-02T02:54:01.913Z,11.30
2018-10-02T02:56:31.464Z,11.00
2018-10-02T02:59:01.409Z,10.43
2018-10-02T03:01:30.878Z,10.87
2018-10-02T03:04:00.536Z,10.37
2018-10-02T03:06:29.782Z,11.50
2018-10-02T03:08:58.982Z,10.30
2018-10-02T03:11:28.234Z,12.00
2018-10-02T03:13:57.413Z,10.70
2018-10-02T03:16:26.620Z,10.30
2018-10-02T03:18:55.876Z,9.63
2018-10-02T03:21:25.056Z,10.70
2018-10-02T03:23:54.434Z,11.57
2018-10-02T03:26:23.667Z,11.83
2018-10-02T03:28:52.856Z,10.67
2018-10-02T03:31:22.093Z,10.53
2018-10-02T03:33:51.383Z,10.57
2018-10-02T03:36:20.594Z,10.43
2018-10-02T03:38:49.817Z,9.97
2018-10-02T03:41:19.096Z,9.53
2018-10-02T03:43:48.274Z,9.87
2018-10-02T03:46:17.520Z,9.67
2018-10-02T03:48:46.777Z,9.47
2018-10-02T03:51:16.174Z,9.60
2018-10-02T03:53:45.375Z,8.60
2018-10-02T03:56:14.590Z,8.87
2018-10-02T03:58:47.213Z,9.10
2018-10-02T04:01:16.462Z,8.93
2018-10-02T04:03:45.685Z,8.40
2018-10-02T04:06:14.879Z,7.87
2018-10-02T04:08:44.112Z,8.43
2018-10-02T04:11:13.347Z,8.30
2018-10-02T04:13:42.538Z,8.50
2018-10-02T04:16:11.754Z,7.60
2018-10-02T04:18:40.939Z,7.20
2018-10-02T04:21:10.177Z,8.27
2018-10-02T04:23:39.407Z,7.60
2018-10-02T04:26:09.182Z,8.10
2018-10-02T04:28:38.364Z,8.53
2018-10-02T04:31:07.647Z,7.50
2018-10-02T04:33:36.858Z,7.53
2018-10-02T04:36:06.082Z,8.70
2018-10-02T04:38:35.322Z,8.30
2018-10-02T04:41:04.534Z,8.47
2018-10-02T04:43:33.748Z,9.27
2018-10-02T04:46:02.957Z,7.17
2018-10-02T04:48:32.117Z,10.67
2018-10-02T04:51:01.287Z,11.10
2018-10-02T04:53:30.596Z,11.53
2018-10-02T04:55:59.900Z,11.47
2018-10-02T04:58:28.973Z,10.30
2018-10-02T05:00:58.229Z,8.60
2018-10-02T05:03:27.645Z,9.50
2018-10-02T05:05:56.964Z,10.57
2018-10-02T05:08:26.209Z,9.07
2018-10-02T05:10:55.454Z,10.17
2018-10-02T05:13:24.805Z,9.10
2018-10-02T05:15:55.528Z,7.53
2018-10-02T05:18:25.193Z,7.80
2018-10-02T05:20:54.401Z,7.40
2018-10-02T05:23:23.545Z,7.77
2018-10-02T05:25:52.721Z,6.10
2018-10-02T05:28:22.088Z,6.23
2018-10-02T05:30:51.363Z,5.53
2018-10-02T05:33:20.545Z,7.00
2018-10-02T05:38:49.675Z,6.00
2018-10-02T05:41:18.813Z,5.30
2018-10-02T05:43:47.981Z,5.47
2018-10-02T05:46:17.234Z,5.30
2018-10-02T05:48:46.414Z,4.90
2018-10-02T05:51:15.569Z,5.80
2018-10-02T05:53:44.745Z,5.80
2018-10-02T05:56:13.914Z,6.20
2018-10-02T05:58:43.080Z,5.77
2018-10-02T06:01:12.262Z,6.17
2018-10-02T06:03:47.934Z,6.60
2018-10-02T06:06:17.110Z,6.20
2018-10-02T06:08:46.925Z,6.03
2018-10-02T06:11:45.446Z,8.23
2018-10-02T06:23:44.389Z,5.87
2018-10-02T06:35:44.117Z,7.63
2018-10-02T06:50:14.532Z,7.63
2018-10-02T06:52:43.808Z,7.80
2018-10-02T06:55:12.889Z,6.63
2018-10-02T06:57:42.077Z,6.87
2018-10-02T07:00:11.316Z,6.20
2018-10-02T07:02:46.157Z,5.07
2018-10-02T07:05:15.305Z,6.23
2018-10-02T07:07:47.513Z,5.77
2018-10-02T07:10:44.153Z,5.90
2018-10-02T07:19:44.627Z,6.00
2018-10-02T07:25:44.671Z,6.27
2018-10-02T07:34:43.941Z,6.03
2018-10-02T07:46:44.678Z,6.67
2018-10-02T07:52:11.889Z,7.17
2018-10-02T07:54:46.877Z,7.40
2018-10-02T08:06:44.244Z,7.70
2018-10-02T08:12:43.907Z,6.37
2018-10-02T08:21:44.136Z,5.50
2018-10-02T08:30:44.278Z,5.50
2018-10-02T08:36:17.372Z,4.90
2018-10-02T08:38:46.539Z,4.87
2018-10-02T08:41:44.855Z,6.17
2018-10-02T08:44:43.775Z,4.30
2018-10-02T08:53:44.245Z,4.80
2018-10-02T08:59:44.065Z,4.63
2018-10-02T09:08:43.953Z,4.40
2018-10-02T09:17:44.208Z,4.53
2018-10-02T09:29:44.529Z,4.87
2018-10-02T09:35:43.850Z,5.40
2018-10-02T10:14:44.576Z,5.23
2018-10-02T10:23:43.925Z,5.10
2018-10-02T10:35:44.312Z,4.47
2018-10-02T10:47:44.388Z,4.13
2018-10-02T11:02:14.424Z,3.17
2018-10-02T11:04:47.732Z,3.60
2018-10-02T11:10:44.247Z,3.10
2018-10-02T11:22:44.117Z,2.90
2018-10-02T11:40:43.809Z,2.73
2018-10-02T11:43:25.168Z,3.20
2018-10-02T11:45:54.498Z,3.00
2018-10-02T11:48:45.099Z,3.80
2018-10-02T11:54:44.049Z,3.80
2018-10-02T12:03:23.860Z,3.20
2018-10-02T12:05:53.118Z,3.23
2018-10-02T12:08:44.854Z,3.27
2018-10-02T12:23:25.636Z,3.47
2018-10-02T12:25:54.810Z,3.23
2018-10-02T12:28:45.193Z,3.63
2018-10-02T12:34:43.945Z,2.80
2018-10-02T12:43:25.012Z,3.70
2018-10-02T12:45:54.422Z,4.33
2018-10-02T12:48:45.017Z,4.40
2018-10-02T12:57:44.804Z,2.97
2018-10-02T13:03:24.885Z,4.80
2018-10-02T13:05:54.072Z,3.40
2018-10-02T13:08:46.493Z,3.57
2018-10-02T13:11:44.405Z,3.37
2018-10-02T13:23:24.854Z,3.53
2018-10-02T13:25:54.045Z,2.97
2018-10-02T13:28:29.525Z,3.30
2018-10-02T13:33:58.838Z,2.90
2018-10-02T13:36:46.599Z,2.87
2018-10-02T13:39:44.636Z,2.83
2018-10-02T13:45:07.741Z,2.47
2018-10-02T13:47:36.990Z,2.80
2018-10-02T13:50:06.446Z,2.53
2018-10-02T13:52:45.456Z,2.67
2018-10-02T13:55:14.648Z,2.73
2018-10-02T13:57:43.853Z,3.43
2018-10-02T14:00:13.113Z,2.43
2018-10-02T14:02:48.741Z,2.17
2018-10-02T14:05:17.963Z,2.20
2018-10-02T14:07:47.205Z,2.60
2018-10-02T14:10:16.411Z,2.57
2018-10-02T14:12:45.704Z,2.57
2018-10-02T14:15:14.871Z,2.57
2018-10-02T14:17:44.049Z,2.60
2018-10-02T14:20:13.301Z,2.67
2018-10-02T14:22:42.834Z,2.17
2018-10-02T14:31:13.378Z,2.33
2018-10-02T14:33:42.542Z,2.17
2018-10-02T14:36:11.706Z,2.67
2018-10-02T14:38:40.931Z,3.53
2018-10-02T14:41:10.136Z,2.20
2018-10-02T14:43:39.303Z,2.40
2018-10-02T14:46:08.707Z,2.60
2018-10-02T14:48:38.095Z,3.20
2018-10-02T14:51:07.258Z,2.80
2018-10-02T14:53:36.466Z,2.97
2018-10-02T14:59:06.567Z,2.37
2018-10-02T15:01:35.740Z,2.20
2018-10-02T15:04:04.969Z,2.63
2018-10-02T15:06:36.296Z,2.87
2018-10-02T15:09:07.898Z,2.03
2018-10-02T15:11:46.941Z,2.43
2018-10-02T15:14:16.112Z,1.90
2018-10-02T15:16:45.281Z,2.33
2018-10-02T15:19:14.487Z,2.13
2018-10-02T15:21:43.645Z,2.40
2018-10-02T15:27:13.433Z,2.60
2018-10-02T15:29:42.854Z,3.10
2018-10-02T15:35:11.813Z,2.47
2018-10-02T15:37:40.998Z,3.47
2018-10-02T15:40:10.189Z,2.67
2018-10-02T15:42:39.666Z,2.77
2018-10-02T15:45:08.970Z,3.23
2018-10-02T15:47:38.133Z,2.57
2018-10-02T15:50:07.463Z,2.53
2018-10-02T15:52:46.631Z,3.33
2018-10-02T15:55:15.865Z,3.17
2018-10-02T15:57:45.057Z,2.97
2018-10-02T16:00:14.211Z,3.20
2018-10-02T16:02:48.984Z,3.03
2018-10-02T16:05:18.149Z,2.83
2018-10-02T16:07:47.342Z,3.40
2018-10-02T16:10:16.579Z,2.70
2018-10-02T16:12:45.903Z,3.07
2018-10-02T16:15:15.163Z,2.73
2018-10-02T16:17:48.061Z,3.27
2018-10-02T16:20:44.477Z,3.20
2018-10-02T16:23:13.752Z,3.87
2018-10-02T16:25:43.106Z,3.53
2018-10-02T16:28:12.353Z,3.70
2018-10-02T16:30:41.692Z,2.90
2018-10-02T16:36:11.245Z,3.17
2018-10-02T16:38:40.486Z,3.30
2018-10-02T16:41:09.683Z,2.90
2018-10-02T16:43:38.905Z,3.50
2018-10-02T16:46:08.231Z,2.93
2018-10-02T16:48:47.465Z,3.13
2018-10-02T16:51:16.946Z,3.50
2018-10-02T16:53:46.146Z,3.30
2018-10-02T16:56:15.362Z,4.73
2018-10-02T16:58:44.578Z,4.30
2018-10-02T17:07:44.541Z,3.80
2018-10-02T17:10:13.774Z,3.40
2018-10-02T17:12:49.136Z,2.90
2018-10-02T17:15:18.925Z,4.10
2018-10-02T17:17:48.161Z,3.03
2018-10-02T17:20:17.385Z,3.60
2018-10-02T17:22:46.997Z,5.27
2018-10-02T17:25:16.235Z,5.87
2018-10-02T17:27:48.779Z,5.00
2018-10-02T17:30:43.441Z,5.23
2018-10-02T17:33:12.674Z,4.40
2018-10-02T17:35:47.787Z,5.43
2018-10-02T17:38:45.698Z,6.30
2018-10-02T17:41:15.286Z,6.07
2018-10-02T17:43:48.077Z,5.07
2018-10-02T17:46:44.629Z,5.10
2018-10-02T17:49:14.013Z,5.60
2018-10-02T17:51:49.029Z,6.27
2018-10-02T17:54:44.856Z,5.20
2018-10-02T17:57:14.115Z,5.13
2018-10-02T17:59:49.277Z,5.70
2018-10-02T18:02:44.589Z,4.73
2018-10-02T18:05:13.805Z,4.53
2018-10-02T18:07:49.243Z,4.50
2018-10-02T18:10:44.263Z,4.83
2018-10-02T18:19:15.249Z,3.80
2018-10-02T18:21:48.021Z,5.13
2018-10-02T18:24:17.297Z,4.17
2018-10-02T18:26:46.544Z,5.03
2018-10-02T18:29:15.898Z,4.70
2018-10-02T18:31:45.150Z,4.20
2018-10-02T18:34:14.389Z,7.30
2018-10-02T18:36:43.967Z,4.97
2018-10-02T18:39:14.079Z,4.20
2018-10-02T18:41:48.922Z,4.63
2018-10-02T18:44:18.255Z,5.43
2018-10-02T18:46:48.583Z,4.97
2018-10-02T18:49:44.294Z,4.63
2018-10-02T18:52:13.786Z,4.17
2018-10-02T18:54:43.316Z,4.80
2018-10-02T18:57:12.614Z,4.03
2018-10-02T18:59:43.152Z,4.57
2018-10-02T19:05:14.745Z,4.27
2018-10-02T19:07:45.978Z,4.27
2018-10-02T19:10:16.119Z,3.70
2018-10-02T19:12:46.280Z,4.70
2018-10-02T19:15:16.263Z,3.90
2018-10-02T19:20:51.971Z,4.17
2018-10-02T19:23:22.192Z,4.20
2018-10-02T19:26:29.391Z,4.60
2018-10-02T19:35:11.600Z,4.50
2018-10-02T19:37:52.025Z,3.30
2018-10-02T19:40:21.557Z,3.97
2018-10-02T19:42:51.557Z,4.07
2018-10-02T19:45:26.300Z,3.70
2018-10-02T19:47:56.844Z,4.83
2018-10-02T19:50:27.285Z,3.50
2018-10-02T19:52:58.274Z,3.33
2018-10-02T19:55:27.756Z,3.57
2018-10-02T19:57:57.123Z,3.80
2018-10-02T20:00:27.684Z,3.80
2018-10-02T20:02:57.112Z,3.67
2018-10-02T20:05:46.531Z,3.87
2018-10-02T20:08:20.135Z,4.60
2018-10-02T20:10:49.482Z,2.90
2018-10-02T20:13:20.242Z,3.50
2018-10-02T20:15:50.299Z,4.07
2018-10-02T20:18:19.604Z,4.43
2018-10-02T20:20:50.034Z,3.90
2018-10-02T20:23:19.488Z,3.40
2018-10-02T20:25:48.819Z,3.87
2018-10-02T20:28:18.129Z,3.47
2018-10-02T20:30:47.491Z,3.30
2018-10-02T20:33:17.866Z,3.90
2018-10-02T20:35:47.229Z,3.27
2018-10-02T20:38:17.103Z,3.80
2018-10-02T20:40:47.805Z,3.83
2018-10-02T20:43:17.068Z,4.43
2018-10-02T20:45:46.395Z,3.47
2018-10-02T20:48:15.676Z,3.73
2018-10-02T20:50:45.020Z,4.20
2018-10-02T20:53:14.538Z,4.00
2018-10-02T20:55:43.783Z,3.67
2018-10-02T20:58:13.066Z,4.23
2018-10-02T21:00:42.370Z,3.73
2018-10-02T21:06:11.620Z,2.77
2018-10-02T21:08:40.797Z,2.70
2018-10-02T21:11:09.996Z,3.47
2018-10-02T21:13:39.281Z,3.00
2018-10-02T21:16:08.769Z,3.33
2018-10-02T21:18:37.967Z,3.17
2018-10-02T21:21:07.553Z,3.90
2018-10-02T21:23:36.746Z,3.23
2018-10-02T21:26:05.993Z,3.07
2018-10-02T21:28:35.189Z,3.77
2018-10-02T21:34:05.061Z,2.90
2018-10-02T21:36:34.279Z,2.33
2018-10-02T21:39:04.923Z,2.07
2018-10-02T21:41:34.204Z,2.00
2018-10-02T21:44:03.412Z,2.13
2018-10-02T21:46:32.836Z,2.10
2018-10-02T21:49:02.037Z,2.00
2018-10-02T21:51:31.246Z,1.90
2018-10-02T21:54:00.566Z,2.00
2018-10-02T21:56:29.749Z,1.83
2018-10-02T21:58:58.958Z,2.00
2018-10-02T22:01:31.495Z,2.60
2018-10-02T22:04:00.697Z,2.67
2018-10-02T22:06:29.890Z,2.83
2018-10-02T22:08:59.100Z,1.90
2018-10-02T22:11:28.262Z,2.50
2018-10-02T22:13:57.464Z,2.50
2018-10-02T22:16:26.645Z,2.23
2018-10-02T22:18:55.825Z,2.43
2018-10-02T22:21:25.079Z,2.77
2018-10-02T22:23:54.273Z,2.73
2018-10-02T22:26:23.423Z,2.00
2018-10-02T22:28:52.568Z,2.00
2018-10-02T22:31:21.764Z,2.20
2018-10-02T22:33:50.943Z,3.40
2018-10-02T22:36:20.412Z,3.33
2018-10-02T22:38:49.726Z,3.70
2018-10-02T22:41:18.908Z,2.97
2018-10-02T22:43:48.076Z,3.27
2018-10-02T22:46:17.294Z,3.17
2018-10-02T22:48:46.473Z,3.43
2018-10-02T22:51:15.673Z,4.00
2018-10-02T22:53:44.880Z,4.00
2018-10-02T22:56:14.463Z,4.47
2018-10-02T22:58:43.659Z,3.10
2018-10-02T23:01:12.863Z,5.50
2018-10-02T23:03:42.027Z,5.17
2018-10-02T23:06:11.227Z,4.90
2018-10-02T23:08:40.454Z,4.83
2018-10-02T23:11:09.740Z,4.00
2018-10-02T23:13:38.940Z,4.47
2018-10-02T23:16:08.292Z,4.10
2018-10-02T23:18:37.515Z,4.37
2018-10-02T23:21:06.710Z,5.73
2018-10-02T23:23:36.035Z,5.97
2018-10-02T23:26:05.208Z,5.07
2018-10-02T23:28:34.408Z,3.37
2018-10-02T23:31:03.629Z,6.30
2018-10-02T23:33:32.803Z,6.00
2018-10-02T23:36:02.033Z,6.63
2018-10-02T23:41:31.286Z,6.60
2018-10-02T23:44:00.469Z,5.93
2018-10-02T23:46:29.640Z,6.20
2018-10-02T23:48:58.869Z,6.00
2018-10-02T23:51:28.231Z,7.10
2018-10-02T23:53:57.515Z,7.93
2018-10-02T23:56:26.884Z,5.60
2018-10-02T23:58:56.087Z,7.33
